sensor_id;sensor_type;location;lat;lon;timestamp;P1;durP1;ratioP1;P2;durP2;ratioP2
32323;SDS011;25666;44.350;9.222;2023-10-19T00:01:57;11.88;;;3.00;;
32323;SDS011;25666;44.350;9.222;2023-10-19T00:04:24;8.85;;;4.07;;
32323;SDS011;25666;44.350;9.222;2023-10-19T00:06:50;7.20;;;2.95;;
32323;SDS011;25666;44.350;9.222;2023-10-19T00:09:18;8.20;;;2.90;;
32323;SDS011;25666;44.350;9.222;2023-10-19T00:11:45;10.45;;;3.30;;
32323;SDS011;25666;44.350;9.222;2023-10-19T00:14:11;8.13;;;3.30;;
32323;SDS011;25666;44.350;9.222;2023-10-19T00:16:43;10.82;;;3.92;;
32323;SDS011;25666;44.350;9.222;2023-10-19T00:19:16;7.35;;;3.13;;
32323;SDS011;25666;44.350;9.222;2023-10-19T00:21:45;11.25;;;4.45;;
32323;SDS011;25666;44.350;9.222;2023-10-19T00:24:19;15.05;;;4.32;;
32323;SDS011;25666;44.350;9.222;2023-10-19T00:26:47;16.20;;;3.75;;
32323;SDS011;25666;44.350;9.222;2023-10-19T00:29:13;9.27;;;3.08;;
32323;SDS011;25666;44.350;9.222;2023-10-19T00:31:59;10.63;;;3.08;;
32323;SDS011;25666;44.350;9.222;2023-10-19T00:34:27;11.73;;;3.45;;
32323;SDS011;25666;44.350;9.222;2023-10-19T00:36:54;7.32;;;3.28;;
32323;SDS011;25666;44.350;9.222;2023-10-19T00:39:33;7.15;;;2.85;;
32323;SDS011;25666;44.350;9.222;2023-10-19T00:42:08;7.20;;;2.80;;
32323;SDS011;25666;44.350;9.222;2023-10-19T00:44:34;9.30;;;3.13;;
32323;SDS011;25666;44.350;9.222;2023-10-19T00:47:07;9.77;;;3.63;;
32323;SDS011;25666;44.350;9.222;2023-10-19T00:49:53;6.05;;;2.97;;
32323;SDS011;25666;44.350;9.222;2023-10-19T00:52:20;8.05;;;4.15;;
32323;SDS011;25666;44.350;9.222;2023-10-19T00:54:48;6.22;;;3.20;;
32323;SDS011;25666;44.350;9.222;2023-10-19T00:57:17;8.07;;;3.03;;
32323;SDS011;25666;44.350;9.222;2023-10-19T00:59:57;8.70;;;3.65;;
32323;SDS011;25666;44.350;9.222;2023-10-19T01:02:36;8.30;;;3.20;;
32323;SDS011;25666;44.350;9.222;2023-10-19T01:05:09;6.85;;;3.17;;
32323;SDS011;25666;44.350;9.222;2023-10-19T01:07:38;6.57;;;2.65;;
32323;SDS011;25666;44.350;9.222;2023-10-19T01:10:06;10.90;;;2.78;;
32323;SDS011;25666;44.350;9.222;2023-10-19T01:12:53;4.15;;;2.90;;
32323;SDS011;25666;44.350;9.222;2023-10-19T01:15:21;4.88;;;2.63;;
32323;SDS011;25666;44.350;9.222;2023-10-19T01:17:53;4.47;;;2.58;;
32323;SDS011;25666;44.350;9.222;2023-10-19T01:20:26;8.70;;;2.92;;
32323;SDS011;25666;44.350;9.222;2023-10-19T01:22:58;7.70;;;3.10;;
32323;SDS011;25666;44.350;9.222;2023-10-19T01:25:31;7.15;;;2.38;;
32323;SDS011;25666;44.350;9.222;2023-10-19T01:28:07;5.07;;;2.53;;
32323;SDS011;25666;44.350;9.222;2023-10-19T01:30:37;7.20;;;3.10;;
32323;SDS011;25666;44.350;9.222;2023-10-19T01:33:03;8.05;;;3.00;;
32323;SDS011;25666;44.350;9.222;2023-10-19T01:35:33;5.13;;;3.25;;
32323;SDS011;25666;44.350;9.222;2023-10-19T01:38:19;7.63;;;2.30;;
32323;SDS011;25666;44.350;9.222;2023-10-19T01:40:45;7.43;;;2.80;;
32323;SDS011;25666;44.350;9.222;2023-10-19T01:43:13;6.20;;;2.30;;
32323;SDS011;25666;44.350;9.222;2023-10-19T01:45:47;3.30;;;2.13;;
32323;SDS011;25666;44.350;9.222;2023-10-19T01:48:13;9.70;;;3.08;;
32323;SDS011;25666;44.350;9.222;2023-10-19T01:50:40;5.28;;;2.45;;
32323;SDS011;25666;44.350;9.222;2023-10-19T01:53:06;8.65;;;3.10;;
32323;SDS011;25666;44.350;9.222;2023-10-19T01:55:42;5.95;;;2.53;;
32323;SDS011;25666;44.350;9.222;2023-10-19T01:58:08;7.50;;;2.65;;
32323;SDS011;25666;44.350;9.222;2023-10-19T02:00:35;7.38;;;2.42;;
32323;SDS011;25666;44.350;9.222;2023-10-19T02:03:08;14.57;;;3.75;;
32323;SDS011;25666;44.350;9.222;2023-10-19T02:05:34;12.43;;;2.92;;
32323;SDS011;25666;44.350;9.222;2023-10-19T02:08:07;4.18;;;2.22;;
32323;SDS011;25666;44.350;9.222;2023-10-19T02:10:33;8.18;;;2.92;;
32323;SDS011;25666;44.350;9.222;2023-10-19T02:13:00;10.15;;;2.70;;
32323;SDS011;25666;44.350;9.222;2023-10-19T02:15:33;5.47;;;2.72;;
32323;SDS011;25666;44.350;9.222;2023-10-19T02:18:02;11.25;;;3.70;;
32323;SDS011;25666;44.350;9.222;2023-10-19T02:20:29;9.40;;;3.35;;
32323;SDS011;25666;44.350;9.222;2023-10-19T02:22:56;5.30;;;2.88;;
32323;SDS011;25666;44.350;9.222;2023-10-19T02:25:23;15.88;;;3.38;;
32323;SDS011;25666;44.350;9.222;2023-10-19T02:27:56;12.07;;;3.28;;
32323;SDS011;25666;44.350;9.222;2023-10-19T02:30:22;5.78;;;3.17;;
32323;SDS011;25666;44.350;9.222;2023-10-19T02:32:50;9.45;;;3.33;;
32323;SDS011;25666;44.350;9.222;2023-10-19T02:35:16;10.15;;;3.20;;
32323;SDS011;25666;44.350;9.222;2023-10-19T02:37:41;6.03;;;3.15;;
32323;SDS011;25666;44.350;9.222;2023-10-19T02:40:07;9.07;;;3.25;;
32323;SDS011;25666;44.350;9.222;2023-10-19T02:42:37;6.18;;;3.20;;
32323;SDS011;25666;44.350;9.222;2023-10-19T02:45:03;11.75;;;3.30;;
32323;SDS011;25666;44.350;9.222;2023-10-19T02:47:30;7.63;;;3.05;;
32323;SDS011;25666;44.350;9.222;2023-10-19T02:49:55;12.32;;;3.75;;
32323;SDS011;25666;44.350;9.222;2023-10-19T02:52:22;8.73;;;3.70;;
32323;SDS011;25666;44.350;9.222;2023-10-19T02:54:48;11.05;;;3.38;;
32323;SDS011;25666;44.350;9.222;2023-10-19T02:57:14;6.35;;;3.03;;
32323;SDS011;25666;44.350;9.222;2023-10-19T02:59:39;6.70;;;3.00;;
32323;SDS011;25666;44.350;9.222;2023-10-19T03:02:05;6.47;;;2.88;;
32323;SDS011;25666;44.350;9.222;2023-10-19T03:04:37;6.93;;;2.42;;
32323;SDS011;25666;44.350;9.222;2023-10-19T03:07:03;5.90;;;2.40;;
32323;SDS011;25666;44.350;9.222;2023-10-19T03:09:29;7.65;;;2.30;;
32323;SDS011;25666;44.350;9.222;2023-10-19T03:11:55;6.35;;;2.45;;
32323;SDS011;25666;44.350;9.222;2023-10-19T03:14:27;6.55;;;2.70;;
32323;SDS011;25666;44.350;9.222;2023-10-19T03:16:53;3.80;;;2.08;;
32323;SDS011;25666;44.350;9.222;2023-10-19T03:19:23;11.52;;;2.33;;
32323;SDS011;25666;44.350;9.222;2023-10-19T03:21:50;3.85;;;2.17;;
32323;SDS011;25666;44.350;9.222;2023-10-19T03:24:16;8.05;;;2.63;;
32323;SDS011;25666;44.350;9.222;2023-10-19T03:26:51;8.70;;;3.60;;
32323;SDS011;25666;44.350;9.222;2023-10-19T03:29:19;11.90;;;2.95;;
32323;SDS011;25666;44.350;9.222;2023-10-19T03:34:18;6.93;;;2.50;;
32323;SDS011;25666;44.350;9.222;2023-10-19T03:36:43;7.60;;;3.38;;
32323;SDS011;25666;44.350;9.222;2023-10-19T03:39:09;9.60;;;2.97;;
32323;SDS011;25666;44.350;9.222;2023-10-19T03:41:41;7.72;;;3.10;;
32323;SDS011;25666;44.350;9.222;2023-10-19T03:44:08;7.35;;;2.72;;
32323;SDS011;25666;44.350;9.222;2023-10-19T03:46:53;7.50;;;3.15;;
32323;SDS011;25666;44.350;9.222;2023-10-19T03:49:20;7.68;;;3.10;;
32323;SDS011;25666;44.350;9.222;2023-10-19T03:51:46;6.65;;;2.78;;
32323;SDS011;25666;44.350;9.222;2023-10-19T03:54:25;10.48;;;3.10;;
32323;SDS011;25666;44.350;9.222;2023-10-19T03:56:52;7.47;;;3.10;;
32323;SDS011;25666;44.350;9.222;2023-10-19T03:59:18;11.30;;;3.80;;
32323;SDS011;25666;44.350;9.222;2023-10-19T04:01:45;6.30;;;4.15;;
32323;SDS011;25666;44.350;9.222;2023-10-19T04:04:11;7.47;;;3.13;;
32323;SDS011;25666;44.350;9.222;2023-10-19T04:06:36;9.93;;;4.13;;
32323;SDS011;25666;44.350;9.222;2023-10-19T04:09:03;10.60;;;4.32;;
32323;SDS011;25666;44.350;9.222;2023-10-19T04:11:34;9.23;;;4.57;;
32323;SDS011;25666;44.350;9.222;2023-10-19T04:14:16;14.80;;;3.47;;
32323;SDS011;25666;44.350;9.222;2023-10-19T04:16:43;10.07;;;3.70;;
32323;SDS011;25666;44.350;9.222;2023-10-19T04:19:10;10.07;;;3.15;;
32323;SDS011;25666;44.350;9.222;2023-10-19T04:21:36;10.45;;;3.33;;
32323;SDS011;25666;44.350;9.222;2023-10-19T04:24:07;10.63;;;4.10;;
32323;SDS011;25666;44.350;9.222;2023-10-19T04:26:33;10.25;;;3.17;;
32323;SDS011;25666;44.350;9.222;2023-10-19T04:29:06;7.22;;;3.38;;
32323;SDS011;25666;44.350;9.222;2023-10-19T04:31:38;9.85;;;3.60;;
32323;SDS011;25666;44.350;9.222;2023-10-19T04:34:18;6.50;;;3.35;;
32323;SDS011;25666;44.350;9.222;2023-10-19T04:36:46;12.17;;;3.60;;
32323;SDS011;25666;44.350;9.222;2023-10-19T04:39:12;7.45;;;3.20;;
32323;SDS011;25666;44.350;9.222;2023-10-19T04:41:39;8.00;;;2.65;;
32323;SDS011;25666;44.350;9.222;2023-10-19T04:44:06;5.68;;;3.00;;
32323;SDS011;25666;44.350;9.222;2023-10-19T04:46:35;6.35;;;3.20;;
32323;SDS011;25666;44.350;9.222;2023-10-19T04:49:02;4.90;;;2.70;;
32323;SDS011;25666;44.350;9.222;2023-10-19T04:51:29;8.48;;;2.88;;
32323;SDS011;25666;44.350;9.222;2023-10-19T04:53:55;14.38;;;3.90;;
32323;SDS011;25666;44.350;9.222;2023-10-19T04:56:21;11.98;;;4.30;;
32323;SDS011;25666;44.350;9.222;2023-10-19T04:58:47;5.43;;;2.78;;
32323;SDS011;25666;44.350;9.222;2023-10-19T05:01:13;10.82;;;3.53;;
32323;SDS011;25666;44.350;9.222;2023-10-19T05:03:40;12.90;;;3.22;;
32323;SDS011;25666;44.350;9.222;2023-10-19T05:06:08;8.18;;;3.08;;
32323;SDS011;25666;44.350;9.222;2023-10-19T05:08:37;7.63;;;2.80;;
32323;SDS011;25666;44.350;9.222;2023-10-19T05:11:03;11.05;;;2.92;;
32323;SDS011;25666;44.350;9.222;2023-10-19T05:13:30;7.40;;;3.20;;
32323;SDS011;25666;44.350;9.222;2023-10-19T05:15:57;10.35;;;3.50;;
32323;SDS011;25666;44.350;9.222;2023-10-19T05:18:24;5.15;;;3.17;;
32323;SDS011;25666;44.350;9.222;2023-10-19T05:20:51;5.28;;;3.55;;
32323;SDS011;25666;44.350;9.222;2023-10-19T05:23:23;8.45;;;3.50;;
32323;SDS011;25666;44.350;9.222;2023-10-19T05:25:50;11.43;;;3.95;;
32323;SDS011;25666;44.350;9.222;2023-10-19T05:28:18;7.28;;;3.78;;
32323;SDS011;25666;44.350;9.222;2023-10-19T05:30:44;8.82;;;3.10;;
32323;SDS011;25666;44.350;9.222;2023-10-19T05:33:10;17.77;;;4.45;;
32323;SDS011;25666;44.350;9.222;2023-10-19T05:35:36;10.73;;;3.70;;
32323;SDS011;25666;44.350;9.222;2023-10-19T05:38:08;8.02;;;4.07;;
32323;SDS011;25666;44.350;9.222;2023-10-19T05:40:34;8.07;;;3.92;;
32323;SDS011;25666;44.350;9.222;2023-10-19T05:43:01;7.47;;;4.18;;
32323;SDS011;25666;44.350;9.222;2023-10-19T05:45:28;9.07;;;4.13;;
32323;SDS011;25666;44.350;9.222;2023-10-19T05:47:56;8.65;;;3.90;;
32323;SDS011;25666;44.350;9.222;2023-10-19T05:50:22;8.98;;;3.08;;
32323;SDS011;25666;44.350;9.222;2023-10-19T05:52:49;16.73;;;4.20;;
32323;SDS011;25666;44.350;9.222;2023-10-19T05:55:17;9.05;;;3.78;;
32323;SDS011;25666;44.350;9.222;2023-10-19T05:57:42;13.43;;;4.68;;
32323;SDS011;25666;44.350;9.222;2023-10-19T06:00:10;4.65;;;3.42;;
32323;SDS011;25666;44.350;9.222;2023-10-19T06:02:44;14.50;;;3.80;;
32323;SDS011;25666;44.350;9.222;2023-10-19T06:05:12;8.73;;;4.32;;
32323;SDS011;25666;44.350;9.222;2023-10-19T06:07:42;10.82;;;4.57;;
32323;SDS011;25666;44.350;9.222;2023-10-19T06:10:12;6.32;;;3.40;;
32323;SDS011;25666;44.350;9.222;2023-10-19T06:12:43;13.65;;;4.13;;
32323;SDS011;25666;44.350;9.222;2023-10-19T06:15:12;9.35;;;3.42;;
32323;SDS011;25666;44.350;9.222;2023-10-19T06:17:39;11.13;;;3.60;;
32323;SDS011;25666;44.350;9.222;2023-10-19T06:20:06;9.38;;;4.40;;
32323;SDS011;25666;44.350;9.222;2023-10-19T06:22:36;8.43;;;3.60;;
32323;SDS011;25666;44.350;9.222;2023-10-19T06:25:02;11.40;;;3.58;;
32323;SDS011;25666;44.350;9.222;2023-10-19T06:27:31;8.55;;;4.30;;
32323;SDS011;25666;44.350;9.222;2023-10-19T06:29:57;23.38;;;4.70;;
32323;SDS011;25666;44.350;9.222;2023-10-19T06:32:23;5.63;;;3.33;;
32323;SDS011;25666;44.350;9.222;2023-10-19T06:34:48;11.18;;;3.38;;
32323;SDS011;25666;44.350;9.222;2023-10-19T06:37:15;9.38;;;5.07;;
32323;SDS011;25666;44.350;9.222;2023-10-19T06:39:40;8.45;;;3.40;;
32323;SDS011;25666;44.350;9.222;2023-10-19T06:42:07;11.40;;;3.58;;
32323;SDS011;25666;44.350;9.222;2023-10-19T06:44:40;12.02;;;4.25;;
32323;SDS011;25666;44.350;9.222;2023-10-19T06:47:07;8.02;;;3.30;;
32323;SDS011;25666;44.350;9.222;2023-10-19T06:49:33;14.40;;;3.88;;
32323;SDS011;25666;44.350;9.222;2023-10-19T06:51:59;14.90;;;4.80;;
32323;SDS011;25666;44.350;9.222;2023-10-19T06:54:25;17.60;;;4.70;;
32323;SDS011;25666;44.350;9.222;2023-10-19T06:56:53;13.48;;;4.20;;
32323;SDS011;25666;44.350;9.222;2023-10-19T06:59:18;13.65;;;5.38;;
32323;SDS011;25666;44.350;9.222;2023-10-19T07:01:44;10.95;;;4.20;;
32323;SDS011;25666;44.350;9.222;2023-10-19T07:04:09;10.73;;;4.22;;
32323;SDS011;25666;44.350;9.222;2023-10-19T07:06:35;12.40;;;4.65;;
32323;SDS011;25666;44.350;9.222;2023-10-19T07:09:01;7.40;;;3.97;;
32323;SDS011;25666;44.350;9.222;2023-10-19T07:11:29;13.60;;;4.00;;
32323;SDS011;25666;44.350;9.222;2023-10-19T07:13:54;19.35;;;5.40;;
32323;SDS011;25666;44.350;9.222;2023-10-19T07:16:20;9.35;;;4.20;;
32323;SDS011;25666;44.350;9.222;2023-10-19T07:18:46;21.40;;;8.35;;
32323;SDS011;25666;44.350;9.222;2023-10-19T07:21:12;24.45;;;8.00;;
32323;SDS011;25666;44.350;9.222;2023-10-19T07:23:38;20.83;;;8.52;;
32323;SDS011;25666;44.350;9.222;2023-10-19T07:26:03;16.55;;;8.48;;
32323;SDS011;25666;44.350;9.222;2023-10-19T07:28:29;15.45;;;7.45;;
32323;SDS011;25666;44.350;9.222;2023-10-19T07:30:56;20.65;;;6.70;;
32323;SDS011;25666;44.350;9.222;2023-10-19T07:33:22;21.55;;;7.15;;
32323;SDS011;25666;44.350;9.222;2023-10-19T07:35:49;14.45;;;6.97;;
32323;SDS011;25666;44.350;9.222;2023-10-19T07:38:21;17.05;;;7.30;;
32323;SDS011;25666;44.350;9.222;2023-10-19T07:40:47;20.23;;;7.97;;
32323;SDS011;25666;44.350;9.222;2023-10-19T07:43:13;17.40;;;7.50;;
32323;SDS011;25666;44.350;9.222;2023-10-19T07:45:39;13.75;;;6.68;;
32323;SDS011;25666;44.350;9.222;2023-10-19T07:48:05;14.38;;;6.20;;
32323;SDS011;25666;44.350;9.222;2023-10-19T07:50:31;13.80;;;5.63;;
32323;SDS011;25666;44.350;9.222;2023-10-19T07:52:58;16.42;;;5.25;;
32323;SDS011;25666;44.350;9.222;2023-10-19T07:55:24;14.27;;;5.47;;
32323;SDS011;25666;44.350;9.222;2023-10-19T07:57:50;16.83;;;5.10;;
32323;SDS011;25666;44.350;9.222;2023-10-19T08:00:16;15.00;;;6.63;;
32323;SDS011;25666;44.350;9.222;2023-10-19T08:02:45;13.50;;;6.10;;
32323;SDS011;25666;44.350;9.222;2023-10-19T08:05:11;23.00;;;6.00;;
32323;SDS011;25666;44.350;9.222;2023-10-19T08:07:38;20.38;;;8.30;;
32323;SDS011;25666;44.350;9.222;2023-10-19T08:10:05;20.30;;;8.10;;
32323;SDS011;25666;44.350;9.222;2023-10-19T08:12:34;19.23;;;6.90;;
32323;SDS011;25666;44.350;9.222;2023-10-19T08:15:01;11.38;;;5.78;;
32323;SDS011;25666;44.350;9.222;2023-10-19T08:17:27;22.80;;;7.25;;
32323;SDS011;25666;44.350;9.222;2023-10-19T08:19:54;19.13;;;6.63;;
32323;SDS011;25666;44.350;9.222;2023-10-19T08:22:21;19.63;;;6.57;;
32323;SDS011;25666;44.350;9.222;2023-10-19T08:24:46;17.45;;;6.50;;
32323;SDS011;25666;44.350;9.222;2023-10-19T08:27:12;17.08;;;6.53;;
32323;SDS011;25666;44.350;9.222;2023-10-19T08:29:38;17.52;;;7.68;;
32323;SDS011;25666;44.350;9.222;2023-10-19T08:32:04;20.65;;;7.55;;
32323;SDS011;25666;44.350;9.222;2023-10-19T08:34:33;19.63;;;7.43;;
32323;SDS011;25666;44.350;9.222;2023-10-19T08:37:01;25.57;;;8.30;;
32323;SDS011;25666;44.350;9.222;2023-10-19T08:39:27;22.83;;;9.55;;
32323;SDS011;25666;44.350;9.222;2023-10-19T08:41:53;24.00;;;9.10;;
32323;SDS011;25666;44.350;9.222;2023-10-19T08:44:20;19.52;;;8.18;;
32323;SDS011;25666;44.350;9.222;2023-10-19T08:46:46;21.00;;;8.10;;
32323;SDS011;25666;44.350;9.222;2023-10-19T08:49:17;20.27;;;7.75;;
32323;SDS011;25666;44.350;9.222;2023-10-19T08:51:45;23.63;;;8.43;;
32323;SDS011;25666;44.350;9.222;2023-10-19T08:54:12;21.45;;;9.07;;
32323;SDS011;25666;44.350;9.222;2023-10-19T08:56:39;21.70;;;8.73;;
32323;SDS011;25666;44.350;9.222;2023-10-19T08:59:10;17.77;;;9.82;;
32323;SDS011;25666;44.350;9.222;2023-10-19T09:01:36;19.45;;;8.75;;
32323;SDS011;25666;44.350;9.222;2023-10-19T09:04:02;18.90;;;8.93;;
32323;SDS011;25666;44.350;9.222;2023-10-19T09:06:31;16.17;;;8.13;;
32323;SDS011;25666;44.350;9.222;2023-10-19T09:09:06;21.17;;;9.07;;
32323;SDS011;25666;44.350;9.222;2023-10-19T09:11:44;19.25;;;8.68;;
32323;SDS011;25666;44.350;9.222;2023-10-19T09:14:12;16.05;;;8.07;;
32323;SDS011;25666;44.350;9.222;2023-10-19T09:16:38;26.15;;;8.10;;
32323;SDS011;25666;44.350;9.222;2023-10-19T09:19:20;20.50;;;8.40;;
32323;SDS011;25666;44.350;9.222;2023-10-19T09:22:01;13.63;;;8.55;;
32323;SDS011;25666;44.350;9.222;2023-10-19T09:24:33;21.73;;;8.75;;
32323;SDS011;25666;44.350;9.222;2023-10-19T09:27:05;23.50;;;10.18;;
32323;SDS011;25666;44.350;9.222;2023-10-19T09:29:30;25.98;;;9.57;;
32323;SDS011;25666;44.350;9.222;2023-10-19T09:31:59;19.17;;;7.78;;
32323;SDS011;25666;44.350;9.222;2023-10-19T09:34:30;21.40;;;8.90;;
32323;SDS011;25666;44.350;9.222;2023-10-19T09:36:59;28.83;;;8.25;;
32323;SDS011;25666;44.350;9.222;2023-10-19T09:39:29;26.42;;;8.38;;
32323;SDS011;25666;44.350;9.222;2023-10-19T09:42:05;23.35;;;7.50;;
32323;SDS011;25666;44.350;9.222;2023-10-19T09:47:14;30.85;;;7.00;;
32323;SDS011;25666;44.350;9.222;2023-10-19T09:49:43;23.17;;;7.68;;
32323;SDS011;25666;44.350;9.222;2023-10-19T09:52:11;19.83;;;6.45;;
32323;SDS011;25666;44.350;9.222;2023-10-19T09:54:48;27.90;;;7.45;;
32323;SDS011;25666;44.350;9.222;2023-10-19T09:57:22;20.15;;;6.15;;
32323;SDS011;25666;44.350;9.222;2023-10-19T09:59:59;22.42;;;6.88;;
32323;SDS011;25666;44.350;9.222;2023-10-19T10:02:38;21.58;;;6.18;;
32323;SDS011;25666;44.350;9.222;2023-10-19T10:05:25;11.02;;;4.93;;
32323;SDS011;25666;44.350;9.222;2023-10-19T10:10:44;21.55;;;4.63;;
32323;SDS011;25666;44.350;9.222;2023-10-19T10:15:55;16.15;;;4.43;;
32323;SDS011;25666;44.350;9.222;2023-10-19T10:18:25;20.13;;;5.00;;
32323;SDS011;25666;44.350;9.222;2023-10-19T10:23:41;19.77;;;4.18;;
32323;SDS011;25666;44.350;9.222;2023-10-19T10:26:14;14.38;;;3.88;;
32323;SDS011;25666;44.350;9.222;2023-10-19T10:28:41;20.95;;;4.20;;
32323;SDS011;25666;44.350;9.222;2023-10-19T10:31:11;13.80;;;4.30;;
32323;SDS011;25666;44.350;9.222;2023-10-19T10:33:40;11.20;;;3.58;;
32323;SDS011;25666;44.350;9.222;2023-10-19T10:36:19;11.30;;;3.08;;
32323;SDS011;25666;44.350;9.222;2023-10-19T10:38:49;15.43;;;4.35;;
32323;SDS011;25666;44.350;9.222;2023-10-19T10:43:51;17.55;;;4.70;;
32323;SDS011;25666;44.350;9.222;2023-10-19T10:46:18;18.90;;;5.10;;
32323;SDS011;25666;44.350;9.222;2023-10-19T10:48:45;12.82;;;4.65;;
32323;SDS011;25666;44.350;9.222;2023-10-19T10:51:26;15.32;;;4.85;;
32323;SDS011;25666;44.350;9.222;2023-10-19T10:53:54;16.27;;;4.78;;
32323;SDS011;25666;44.350;9.222;2023-10-19T10:56:20;11.85;;;3.28;;
32323;SDS011;25666;44.350;9.222;2023-10-19T10:58:47;11.13;;;4.70;;
32323;SDS011;25666;44.350;9.222;2023-10-19T11:01:13;11.85;;;5.88;;
32323;SDS011;25666;44.350;9.222;2023-10-19T11:03:42;24.45;;;4.97;;
32323;SDS011;25666;44.350;9.222;2023-10-19T11:06:08;17.70;;;4.18;;
32323;SDS011;25666;44.350;9.222;2023-10-19T11:08:37;9.80;;;3.45;;
32323;SDS011;25666;44.350;9.222;2023-10-19T11:11:04;19.98;;;4.68;;
32323;SDS011;25666;44.350;9.222;2023-10-19T11:13:36;12.98;;;3.90;;
32323;SDS011;25666;44.350;9.222;2023-10-19T11:16:04;14.98;;;3.90;;
32323;SDS011;25666;44.350;9.222;2023-10-19T11:21:03;17.98;;;3.97;;
32323;SDS011;25666;44.350;9.222;2023-10-19T11:23:41;13.48;;;4.03;;
32323;SDS011;25666;44.350;9.222;2023-10-19T11:26:09;9.90;;;3.63;;
32323;SDS011;25666;44.350;9.222;2023-10-19T11:28:40;8.27;;;3.00;;
32323;SDS011;25666;44.350;9.222;2023-10-19T11:31:21;18.33;;;4.47;;
32323;SDS011;25666;44.350;9.222;2023-10-19T11:33:48;12.50;;;4.07;;
32323;SDS011;25666;44.350;9.222;2023-10-19T11:36:15;12.40;;;3.72;;
32323;SDS011;25666;44.350;9.222;2023-10-19T11:38:42;11.15;;;3.72;;
32323;SDS011;25666;44.350;9.222;2023-10-19T11:41:09;14.98;;;4.40;;
32323;SDS011;25666;44.350;9.222;2023-10-19T11:43:36;5.93;;;2.72;;
32323;SDS011;25666;44.350;9.222;2023-10-19T11:46:02;9.00;;;3.00;;
32323;SDS011;25666;44.350;9.222;2023-10-19T11:48:34;7.00;;;3.45;;
32323;SDS011;25666;44.350;9.222;2023-10-19T11:51:01;11.63;;;3.80;;
32323;SDS011;25666;44.350;9.222;2023-10-19T11:53:34;13.40;;;3.92;;
32323;SDS011;25666;44.350;9.222;2023-10-19T11:56:00;14.15;;;4.43;;
32323;SDS011;25666;44.350;9.222;2023-10-19T11:58:31;21.48;;;4.57;;
32323;SDS011;25666;44.350;9.222;2023-10-19T12:01:03;10.00;;;4.10;;
32323;SDS011;25666;44.350;9.222;2023-10-19T12:03:42;13.80;;;4.45;;
32323;SDS011;25666;44.350;9.222;2023-10-19T12:08:37;12.60;;;4.65;;
32323;SDS011;25666;44.350;9.222;2023-10-19T12:11:04;12.27;;;3.50;;
32323;SDS011;25666;44.350;9.222;2023-10-19T12:13:40;12.32;;;4.22;;
32323;SDS011;25666;44.350;9.222;2023-10-19T12:16:06;14.38;;;5.22;;
32323;SDS011;25666;44.350;9.222;2023-10-19T12:18:32;17.83;;;5.22;;
32323;SDS011;25666;44.350;9.222;2023-10-19T12:20:58;12.80;;;4.40;;
32323;SDS011;25666;44.350;9.222;2023-10-19T12:23:25;13.35;;;4.28;;
32323;SDS011;25666;44.350;9.222;2023-10-19T12:25:50;13.43;;;4.90;;
32323;SDS011;25666;44.350;9.222;2023-10-19T12:28:17;14.32;;;5.38;;
32323;SDS011;25666;44.350;9.222;2023-10-19T12:30:43;24.35;;;5.75;;
32323;SDS011;25666;44.350;9.222;2023-10-19T12:33:09;13.32;;;4.45;;
32323;SDS011;25666;44.350;9.222;2023-10-19T12:35:37;15.20;;;4.28;;
32323;SDS011;25666;44.350;9.222;2023-10-19T12:38:13;9.52;;;4.10;;
32323;SDS011;25666;44.350;9.222;2023-10-19T12:40:45;15.18;;;3.47;;
32323;SDS011;25666;44.350;9.222;2023-10-19T12:43:13;13.20;;;3.65;;
32323;SDS011;25666;44.350;9.222;2023-10-19T12:45:39;22.85;;;4.38;;
32323;SDS011;25666;44.350;9.222;2023-10-19T12:48:05;19.05;;;4.38;;
32323;SDS011;25666;44.350;9.222;2023-10-19T12:50:33;12.38;;;4.50;;
32323;SDS011;25666;44.350;9.222;2023-10-19T12:52:59;21.38;;;4.40;;
32323;SDS011;25666;44.350;9.222;2023-10-19T12:55:25;11.82;;;4.78;;
32323;SDS011;25666;44.350;9.222;2023-10-19T12:57:59;14.05;;;5.28;;
32323;SDS011;25666;44.350;9.222;2023-10-19T13:00:31;13.25;;;5.07;;
32323;SDS011;25666;44.350;9.222;2023-10-19T13:03:08;12.73;;;4.05;;
32323;SDS011;25666;44.350;9.222;2023-10-19T13:05:38;16.00;;;5.00;;
32323;SDS011;25666;44.350;9.222;2023-10-19T13:08:06;18.23;;;4.82;;
32323;SDS011;25666;44.350;9.222;2023-10-19T13:10:33;14.57;;;4.50;;
32323;SDS011;25666;44.350;9.222;2023-10-19T13:13:03;16.15;;;4.43;;
32323;SDS011;25666;44.350;9.222;2023-10-19T13:15:34;13.15;;;4.07;;
32323;SDS011;25666;44.350;9.222;2023-10-19T13:18:04;14.85;;;4.53;;
32323;SDS011;25666;44.350;9.222;2023-10-19T13:20:31;13.23;;;4.47;;
32323;SDS011;25666;44.350;9.222;2023-10-19T13:23:04;20.35;;;5.88;;
32323;SDS011;25666;44.350;9.222;2023-10-19T13:25:37;15.05;;;4.70;;
32323;SDS011;25666;44.350;9.222;2023-10-19T13:28:05;17.92;;;5.07;;
32323;SDS011;25666;44.350;9.222;2023-10-19T13:30:37;15.70;;;5.32;;
32323;SDS011;25666;44.350;9.222;2023-10-19T13:33:08;15.85;;;5.05;;
32323;SDS011;25666;44.350;9.222;2023-10-19T13:35:38;16.67;;;5.30;;
32323;SDS011;25666;44.350;9.222;2023-10-19T13:38:05;15.98;;;4.45;;
32323;SDS011;25666;44.350;9.222;2023-10-19T13:40:33;10.50;;;4.72;;
32323;SDS011;25666;44.350;9.222;2023-10-19T13:42:59;20.00;;;5.45;;
32323;SDS011;25666;44.350;9.222;2023-10-19T13:45:25;25.65;;;5.05;;
32323;SDS011;25666;44.350;9.222;2023-10-19T13:47:51;12.82;;;3.95;;
32323;SDS011;25666;44.350;9.222;2023-10-19T13:50:23;9.68;;;4.32;;
32323;SDS011;25666;44.350;9.222;2023-10-19T13:52:52;12.80;;;5.00;;
32323;SDS011;25666;44.350;9.222;2023-10-19T13:55:19;13.15;;;5.18;;
32323;SDS011;25666;44.350;9.222;2023-10-19T13:57:48;18.77;;;5.40;;
32323;SDS011;25666;44.350;9.222;2023-10-19T14:00:16;20.23;;;6.40;;
32323;SDS011;25666;44.350;9.222;2023-10-19T14:03:09;15.15;;;6.00;;
32323;SDS011;25666;44.350;9.222;2023-10-19T14:05:39;12.80;;;4.45;;
32323;SDS011;25666;44.350;9.222;2023-10-19T14:08:13;9.27;;;4.10;;
32323;SDS011;25666;44.350;9.222;2023-10-19T14:10:39;11.27;;;5.20;;
32323;SDS011;25666;44.350;9.222;2023-10-19T14:13:10;12.65;;;5.03;;
32323;SDS011;25666;44.350;9.222;2023-10-19T14:15:37;13.57;;;4.40;;
32323;SDS011;25666;44.350;9.222;2023-10-19T14:18:03;14.63;;;4.38;;
32323;SDS011;25666;44.350;9.222;2023-10-19T14:20:30;16.23;;;4.07;;
32323;SDS011;25666;44.350;9.222;2023-10-19T14:22:56;11.98;;;3.58;;
32323;SDS011;25666;44.350;9.222;2023-10-19T14:25:22;15.75;;;3.80;;
32323;SDS011;25666;44.350;9.222;2023-10-19T14:27:49;12.57;;;3.90;;
32323;SDS011;25666;44.350;9.222;2023-10-19T14:30:17;11.18;;;2.85;;
32323;SDS011;25666;44.350;9.222;2023-10-19T14:32:47;13.77;;;3.90;;
32323;SDS011;25666;44.350;9.222;2023-10-19T14:35:17;11.43;;;3.63;;
32323;SDS011;25666;44.350;9.222;2023-10-19T14:37:49;7.05;;;3.45;;
32323;SDS011;25666;44.350;9.222;2023-10-19T14:40:16;16.25;;;3.92;;
32323;SDS011;25666;44.350;9.222;2023-10-19T14:42:49;17.13;;;4.55;;
32323;SDS011;25666;44.350;9.222;2023-10-19T14:45:19;9.85;;;3.13;;
32323;SDS011;25666;44.350;9.222;2023-10-19T14:47:46;16.90;;;2.92;;
32323;SDS011;25666;44.350;9.222;2023-10-19T14:50:13;12.88;;;2.97;;
32323;SDS011;25666;44.350;9.222;2023-10-19T14:52:40;7.30;;;3.47;;
32323;SDS011;25666;44.350;9.222;2023-10-19T14:55:10;6.00;;;3.30;;
32323;SDS011;25666;44.350;9.222;2023-10-19T14:57:37;9.05;;;3.13;;
32323;SDS011;25666;44.350;9.222;2023-10-19T15:00:05;9.70;;;2.80;;
32323;SDS011;25666;44.350;9.222;2023-10-19T15:05:12;13.82;;;3.65;;
32323;SDS011;25666;44.350;9.222;2023-10-19T15:07:46;6.63;;;2.80;;
32323;SDS011;25666;44.350;9.222;2023-10-19T15:10:17;11.05;;;3.50;;
32323;SDS011;25666;44.350;9.222;2023-10-19T15:12:44;14.60;;;2.75;;